Time;durP1;ratioP1;P1;durP2;ratioP2;P2;SDS_P1;SDS_P2;PMS_P1;PMS_P2;Temp;Humidity;BMP_temperature;BMP_pressure;BME280_temperature;BME280_humidity;BME280_pressure;Samples;Min_cycle;Max_cycle;Signal;HPM_P1;HPM_P2
2022/03/19 00:00:53;;;;;;;1.05;1.02;;;10.10;99.90;;;;;;5054146;28;20082;-75
2022/03/19 00:03:20;;;;;;;1.75;0.88;;;10.00;99.90;;;;;;5054212;28;20102;-76
2022/03/19 00:05:46;;;;;;;0.68;0.68;;;9.90;99.90;;;;;;5054847;28;20094;-75
2022/03/19 00:08:12;;;;;;;0.32;0.32;;;9.80;99.90;;;;;;5053323;28;20037;-76
2022/03/19 00:10:38;;;;;;;1.55;1.15;;;9.80;99.90;;;;;;5054015;28;20392;-76
2022/03/19 00:13:04;;;;;;;2.58;2.35;;;9.80;99.90;;;;;;5054043;28;20032;-76
2022/03/19 00:15:30;;;;;;;4.85;1.42;;;9.80;99.90;;;;;;5055064;28;20024;-75
2022/03/19 00:17:57;;;;;;;1.08;0.93;;;9.70;99.90;;;;;;5053316;28;20025;-76
2022/03/19 00:20:23;;;;;;;2.10;0.80;;;9.70;99.90;;;;;;5053803;28;20108;-76
2022/03/19 00:22:49;;;;;;;3.40;0.98;;;9.60;99.90;;;;;;5053900;28;20029;-76
2022/03/19 00:25:15;;;;;;;3.63;0.90;;;9.60;99.90;;;;;;5054540;28;20025;-75
2022/03/19 00:27:41;;;;;;;0.80;0.80;;;9.60;99.90;;;;;;5053385;28;20033;-76
2022/03/19 00:30:07;;;;;;;1.05;0.95;;;9.60;99.90;;;;;;5053239;28;20032;-76
2022/03/19 00:32:34;;;;;;;0.85;0.85;;;9.50;99.90;;;;;;5053729;28;20392;-76
2022/03/19 00:34:59;;;;;;;0.98;0.93;;;9.50;99.90;;;;;;5054765;28;20039;-76
2022/03/19 00:37:25;;;;;;;0.28;0.28;;;9.40;99.90;;;;;;5053529;28;20483;-75
2022/03/19 00:39:51;;;;;;;0.60;0.60;;;9.40;99.90;;;;;;5053252;28;20100;-76
2022/03/19 00:42:16;;;;;;;1.08;1.02;;;9.40;99.90;;;;;;5053367;28;20048;-76
2022/03/19 00:44:43;;;;;;;0.30;0.30;;;9.40;99.90;;;;;;5046610;28;20022;-76
2022/03/19 00:47:09;;;;;;;3.35;1.88;;;9.40;99.90;;;;;;5033447;28;20108;-76
2022/03/19 00:49:34;;;;;;;3.67;1.38;;;9.30;99.90;;;;;;5033236;28;20109;-76
2022/03/19 00:52:00;;;;;;;0.98;0.98;;;9.30;99.90;;;;;;5051235;28;20028;-75
2022/03/19 00:54:26;;;;;;;4.60;1.55;;;9.30;99.90;;;;;;5053393;28;20079;-76
2022/03/19 00:56:51;;;;;;;0.20;0.17;;;9.20;99.90;;;;;;5053303;28;20021;-76
2022/03/19 00:59:17;;;;;;;4.75;0.98;;;9.20;99.90;;;;;;5051452;28;20055;-76
2022/03/19 01:01:43;;;;;;;1.00;0.70;;;9.10;99.90;;;;;;5054003;28;20036;-76
2022/03/19 01:04:08;;;;;;;0.50;0.50;;;9.10;99.90;;;;;;5053216;28;20077;-76
2022/03/19 01:06:34;;;;;;;11.35;1.80;;;9.10;99.90;;;;;;5053393;28;20037;-76
2022/03/19 01:08:59;;;;;;;11.10;0.60;;;9.00;99.90;;;;;;5052707;28;20065;-76
2022/03/19 01:11:25;;;;;;;0.55;0.55;;;9.00;99.90;;;;;;5053932;28;20150;-76
2022/03/19 01:13:55;;;;;;;1.10;0.93;;;9.00;99.90;;;;;;5052421;28;20444;-76
2022/03/19 01:16:21;;;;;;;0.55;0.55;;;9.00;99.90;;;;;;5053300;28;20096;-76
2022/03/19 01:18:49;;;;;;;1.17;0.63;;;8.90;99.90;;;;;;5052068;28;20488;-76
2022/03/19 01:21:15;;;;;;;0.52;0.52;;;8.90;99.90;;;;;;5053992;28;20518;-76
2022/03/19 01:23:41;;;;;;;0.38;0.15;;;8.90;99.90;;;;;;5053402;28;20036;-76
2022/03/19 01:26:07;;;;;;;0.60;0.60;;;8.80;99.90;;;;;;5053186;28;20025;-76
2022/03/19 01:28:33;;;;;;;0.70;0.40;;;8.80;99.90;;;;;;5052374;28;20048;-76
2022/03/19 01:30:58;;;;;;;1.27;1.17;;;8.70;99.90;;;;;;5054320;28;20032;-76
2022/03/19 01:33:24;;;;;;;2.30;1.38;;;8.70;99.90;;;;;;5052760;28;20029;-76
2022/03/19 01:35:50;;;;;;;1.05;1.05;;;8.70;99.90;;;;;;5052863;28;20021;-76
2022/03/19 01:38:15;;;;;;;4.40;1.73;;;8.60;99.90;;;;;;5051519;28;20112;-76
2022/03/19 01:40:41;;;;;;;0.30;0.28;;;8.60;99.90;;;;;;5053386;28;20025;-76
2022/03/19 01:43:07;;;;;;;1.08;0.90;;;8.60;99.90;;;;;;5052595;28;20048;-75
2022/03/19 01:45:33;;;;;;;1.27;1.15;;;8.60;99.90;;;;;;5052679;28;20028;-76
2022/03/19 01:47:59;;;;;;;2.30;1.60;;;8.60;99.90;;;;;;5052747;28;20029;-76
2022/03/19 01:50:26;;;;;;;3.15;1.73;;;8.60;99.90;;;;;;5052886;28;20068;-75
2022/03/19 01:52:53;;;;;;;3.03;1.95;;;8.60;99.90;;;;;;5051898;28;20017;-75
2022/03/19 01:55:22;;;;;;;0.40;0.40;;;8.50;99.90;;;;;;5052587;28;20024;-76
2022/03/19 01:57:49;;;;;;;0.30;0.30;;;8.40;99.90;;;;;;5052134;28;20419;-76
2022/03/19 02:00:18;;;;;;;1.65;1.50;;;8.40;99.90;;;;;;5052787;28;20029;-75
2022/03/19 02:02:45;;;;;;;2.83;1.55;;;8.40;99.90;;;;;;5052590;28;20031;-76
2022/03/19 02:05:14;;;;;;;2.58;0.50;;;8.40;99.90;;;;;;5053255;28;20029;-76
2022/03/19 02:07:41;;;;;;;1.30;1.00;;;8.30;99.90;;;;;;5056409;28;20488;-76
2022/03/19 02:10:07;;;;;;;2.60;1.73;;;8.30;99.90;;;;;;5057209;28;20035;-75
2022/03/19 02:12:33;;;;;;;0.43;0.43;;;8.20;99.90;;;;;;5054853;28;20056;-75
2022/03/19 02:14:59;;;;;;;0.82;0.82;;;8.20;99.90;;;;;;5056245;28;20053;-75
2022/03/19 02:17:26;;;;;;;0.25;0.25;;;8.20;99.90;;;;;;5055911;28;20096;-75
2022/03/19 02:19:53;;;;;;;2.28;1.63;;;8.20;99.90;;;;;;5056623;28;20024;-74
2022/03/19 02:22:26;;;;;;;0.30;0.30;;;8.20;99.90;;;;;;5053668;28;20111;-76
2022/03/19 02:27:39;;;;;;;0.60;0.60;;;8.10;99.90;;;;;;5035906;28;20264;-76
2022/03/19 02:30:08;;;;;;;1.00;0.88;;;8.10;99.90;;;;;;5035061;28;20109;-76
2022/03/19 02:32:34;;;;;;;1.65;1.55;;;8.10;99.90;;;;;;5036765;28;20033;-75
2022/03/19 02:35:00;;;;;;;1.77;1.67;;;8.10;99.90;;;;;;5036658;28;20026;-75
2022/03/19 02:37:26;;;;;;;1.17;0.75;;;8.10;99.90;;;;;;5045135;28;20021;-75
2022/03/19 02:39:52;;;;;;;0.20;0.20;;;8.20;99.90;;;;;;5056192;28;20029;-75
2022/03/19 02:42:19;;;;;;;0.77;0.70;;;8.20;99.90;;;;;;5056361;28;20056;-76
2022/03/19 02:44:45;;;;;;;0.32;0.32;;;8.10;99.90;;;;;;5055556;28;20094;-76
2022/03/19 02:47:11;;;;;;;0.65;0.20;;;8.10;99.90;;;;;;5055599;28;20049;-76
2022/03/19 02:49:37;;;;;;;1.00;1.00;;;8.10;99.90;;;;;;5056076;28;20061;-75
2022/03/19 02:52:03;;;;;;;0.63;0.63;;;8.10;99.90;;;;;;5055200;28;20449;-76
2022/03/19 02:54:31;;;;;;;0.60;0.60;;;8.00;99.90;;;;;;5055032;28;20021;-76
2022/03/19 02:56:58;;;;;;;3.03;1.90;;;8.00;99.90;;;;;;5055260;28;20032;-76
2022/03/19 02:59:26;;;;;;;1.10;0.77;;;8.00;99.90;;;;;;5057066;28;20048;-75
2022/03/19 03:01:55;;;;;;;0.85;0.85;;;8.00;99.90;;;;;;5053885;28;20036;-76
2022/03/19 03:04:21;;;;;;;1.17;1.17;;;7.90;99.90;;;;;;5054916;28;20108;-75
2022/03/19 03:06:50;;;;;;;0.90;0.90;;;7.90;99.90;;;;;;5055274;28;20381;-75
2022/03/19 03:09:19;;;;;;;1.95;0.88;;;7.90;99.90;;;;;;5055150;28;20025;-76
2022/03/19 03:11:46;;;;;;;0.40;0.32;;;7.90;99.90;;;;;;5053736;28;20032;-76
2022/03/19 03:14:13;;;;;;;2.10;1.35;;;7.90;99.90;;;;;;5055122;28;20036;-76
2022/03/19 03:16:41;;;;;;;0.55;0.55;;;7.90;99.90;;;;;;5054514;28;20014;-76
2022/03/19 03:19:10;;;;;;;0.73;0.73;;;7.90;99.90;;;;;;5055433;28;20021;-75
2022/03/19 03:21:36;;;;;;;3.58;2.20;;;7.90;99.90;;;;;;5053674;28;20035;-75
2022/03/19 03:24:02;;;;;;;3.25;1.42;;;7.80;99.90;;;;;;5038371;28;20021;-76
2022/03/19 03:26:29;;;;;;;2.33;1.55;;;7.80;99.90;;;;;;5035371;28;20030;-76
2022/03/19 03:28:56;;;;;;;1.67;1.35;;;7.80;99.90;;;;;;5035595;28;20087;-75
2022/03/19 03:31:22;;;;;;;1.20;0.77;;;7.80;99.90;;;;;;5034110;28;20025;-76
2022/03/19 03:33:49;;;;;;;1.60;1.50;;;7.70;99.90;;;;;;5034832;28;20484;-76
2022/03/19 03:36:14;;;;;;;1.10;0.45;;;7.70;99.90;;;;;;5034727;28;20030;-76
2022/03/19 03:38:40;;;;;;;0.80;0.80;;;7.70;99.90;;;;;;5054197;28;20028;-76
2022/03/19 03:41:06;;;;;;;1.63;1.52;;;7.70;99.90;;;;;;5054467;28;20377;-75
2022/03/19 03:43:32;;;;;;;3.28;0.77;;;7.70;99.90;;;;;;5054562;28;20057;-76
2022/03/19 03:45:58;;;;;;;0.60;0.60;;;7.80;99.90;;;;;;5054745;28;20484;-76
2022/03/19 03:48:24;;;;;;;2.53;1.55;;;7.80;99.90;;;;;;5056599;28;20032;-76
2022/03/19 03:50:52;;;;;;;4.10;2.40;;;7.80;99.90;;;;;;5054218;28;20045;-75
2022/03/19 03:53:18;;;;;;;0.75;0.75;;;7.80;99.90;;;;;;5054497;28;20100;-76
2022/03/19 03:55:45;;;;;;;0.50;0.47;;;7.70;99.90;;;;;;5054848;28;20025;-75
2022/03/19 03:58:11;;;;;;;2.25;1.45;;;7.70;99.90;;;;;;5053036;28;20061;-75
2022/03/19 04:00:37;;;;;;;0.15;0.15;;;7.60;99.90;;;;;;5054154;28;20377;-75
2022/03/19 04:03:06;;;;;;;0.68;0.68;;;7.60;99.90;;;;;;5054128;28;20082;-76
2022/03/19 04:05:35;;;;;;;1.02;0.93;;;7.60;99.90;;;;;;5055099;28;20051;-75
2022/03/19 04:08:02;;;;;;;1.27;1.20;;;7.60;99.90;;;;;;5054167;28;20108;-75
2022/03/19 04:10:28;;;;;;;0.57;0.57;;;7.60;99.90;;;;;;5053526;28;20025;-75
2022/03/19 04:12:54;;;;;;;0.68;0.65;;;7.50;99.90;;;;;;5052880;28;20033;-75
2022/03/19 04:15:20;;;;;;;1.02;1.02;;;7.50;99.90;;;;;;5054451;28;20017;-75
2022/03/19 04:17:46;;;;;;;0.43;0.43;;;7.40;99.90;;;;;;5053633;28;20082;-76
2022/03/19 04:20:12;;;;;;;0.68;0.68;;;7.40;99.90;;;;;;5053973;28;20025;-76
2022/03/19 04:22:43;;;;;;;1.05;0.98;;;7.40;99.90;;;;;;5048912;28;20151;-76
2022/03/19 04:25:13;;;;;;;2.03;1.90;;;7.40;99.90;;;;;;5034756;28;20026;-76
2022/03/19 04:27:43;;;;;;;0.98;0.85;;;7.40;99.90;;;;;;5034408;28;20021;-76
2022/03/19 04:30:13;;;;;;;2.63;2.20;;;7.40;99.90;;;;;;5033377;28;20134;-76
2022/03/19 04:32:43;;;;;;;0.55;0.55;;;7.40;99.90;;;;;;5033141;28;20036;-76
2022/03/19 04:37:56;;;;;;;1.92;1.83;;;7.30;99.90;;;;;;5046754;28;20139;-76
2022/03/19 04:40:22;;;;;;;1.55;0.95;;;7.30;99.90;;;;;;5053763;28;20044;-76
2022/03/19 04:42:48;;;;;;;2.47;1.50;;;7.30;99.90;;;;;;5052014;28;20055;-75
2022/03/19 04:45:13;;;;;;;1.10;1.08;;;7.30;99.90;;;;;;5056011;28;20032;-76
2022/03/19 04:47:39;;;;;;;0.80;0.80;;;7.30;99.90;;;;;;5053133;28;20411;-76
2022/03/19 04:50:06;;;;;;;3.00;1.65;;;7.30;99.90;;;;;;5052917;28;20029;-76
2022/03/19 04:52:34;;;;;;;5.03;1.00;;;7.30;99.90;;;;;;5053206;28;20506;-76
2022/03/19 04:55:00;;;;;;;0.57;0.57;;;7.30;99.90;;;;;;5055032;28;20025;-76
2022/03/19 04:57:29;;;;;;;1.00;0.93;;;7.30;99.90;;;;;;5053580;28;20435;-76
2022/03/19 04:59:55;;;;;;;4.75;1.38;;;7.30;99.90;;;;;;5053596;28;20083;-76
2022/03/19 05:02:24;;;;;;;12.48;0.68;;;7.20;99.90;;;;;;5035519;28;20136;-76
2022/03/19 05:04:51;;;;;;;0.47;0.47;;;7.20;99.90;;;;;;5034560;28;20052;-76
2022/03/19 05:07:19;;;;;;;1.33;1.33;;;7.20;99.90;;;;;;5033419;28;20025;-76
2022/03/19 05:12:35;;;;;;;0.65;0.65;;;7.30;99.90;;;;;;5033238;28;20029;-76
2022/03/19 05:15:00;;;;;;;1.08;1.08;;;7.30;99.90;;;;;;5034006;28;20020;-76
2022/03/19 05:17:26;;;;;;;0.40;0.40;;;7.30;99.90;;;;;;5032796;28;20104;-76
2022/03/19 05:19:53;;;;;;;6.53;1.80;;;7.20;99.90;;;;;;5033264;28;20025;-76
2022/03/19 05:22:19;;;;;;;0.88;0.88;;;7.20;99.90;;;;;;5032861;28;20099;-76
2022/03/19 05:24:45;;;;;;;2.53;1.67;;;7.10;99.90;;;;;;5033812;28;20030;-76
2022/03/19 05:27:12;;;;;;;1.38;1.27;;;7.10;99.90;;;;;;5032855;28;20041;-76
2022/03/19 05:29:38;;;;;;;1.90;1.80;;;7.00;99.90;;;;;;5033110;28;20037;-76
2022/03/19 05:32:07;;;;;;;1.20;0.98;;;7.00;99.90;;;;;;5033093;28;20473;-75
2022/03/19 05:34:34;;;;;;;1.08;1.08;;;7.00;99.90;;;;;;5035340;28;20462;-76
2022/03/19 05:37:03;;;;;;;0.68;0.60;;;6.90;99.90;;;;;;5038172;28;20017;-75
2022/03/19 05:39:31;;;;;;;0.45;0.45;;;6.90;99.90;;;;;;5053001;28;20500;-76
2022/03/19 05:41:57;;;;;;;5.10;2.65;;;7.00;99.90;;;;;;5056254;28;20037;-76
2022/03/19 05:44:23;;;;;;;1.38;0.95;;;6.90;99.90;;;;;;5056788;28;20027;-76
2022/03/19 05:46:49;;;;;;;0.50;0.38;;;6.90;99.90;;;;;;5056952;28;20404;-75
2022/03/19 05:49:15;;;;;;;4.45;1.13;;;6.90;99.90;;;;;;5056423;28;20025;-76
2022/03/19 05:51:41;;;;;;;2.70;1.70;;;6.80;99.90;;;;;;5057133;28;20045;-75
2022/03/19 05:54:08;;;;;;;1.23;1.20;;;6.80;99.90;;;;;;5056499;28;20021;-75
2022/03/19 05:56:37;;;;;;;2.00;1.90;;;6.70;99.90;;;;;;5056639;28;20028;-75
2022/03/19 05:59:03;;;;;;;1.33;1.25;;;6.70;99.90;;;;;;5055890;28;20013;-75
2022/03/19 06:01:29;;;;;;;1.02;0.95;;;6.70;99.90;;;;;;5047436;28;20033;-75
2022/03/19 06:03:59;;;;;;;0.65;0.65;;;6.60;99.90;;;;;;5036593;28;20034;-75
2022/03/19 06:06:28;;;;;;;0.85;0.85;;;6.60;99.90;;;;;;5036584;28;20404;-75
2022/03/19 06:08:54;;;;;;;1.15;1.15;;;6.60;99.90;;;;;;5036559;28;20036;-75
2022/03/19 06:11:20;;;;;;;1.13;1.00;;;6.60;99.90;;;;;;5037423;28;20029;-75
2022/03/19 06:13:46;;;;;;;0.73;0.73;;;6.60;99.90;;;;;;5036455;28;20022;-76
2022/03/19 06:16:12;;;;;;;3.00;1.55;;;6.60;99.90;;;;;;5036279;28;20031;-76
2022/03/19 06:18:38;;;;;;;0.55;0.55;;;6.60;99.90;;;;;;5036060;28;20026;-75
2022/03/19 06:21:03;;;;;;;1.17;1.08;;;6.60;99.90;;;;;;5037563;28;20056;-75
2022/03/19 06:23:29;;;;;;;0.25;0.25;;;6.60;99.90;;;;;;5036292;28;20056;-75
2022/03/19 06:25:55;;;;;;;0.45;0.45;;;6.60;99.90;;;;;;5035875;28;20100;-76
2022/03/19 06:28:21;;;;;;;1.85;1.17;;;6.60;99.90;;;;;;5036920;28;20455;-75
2022/03/19 06:30:48;;;;;;;1.10;1.10;;;6.60;99.90;;;;;;5035959;28;20034;-75
2022/03/19 06:33:14;;;;;;;1.13;1.02;;;6.60;99.90;;;;;;5035015;28;20623;-76
2022/03/19 06:38:28;;;;;;;2.15;0.93;;;6.60;99.90;;;;;;5053888;28;20082;-75
2022/03/19 06:40:54;;;;;;;0.63;0.63;;;6.70;99.90;;;;;;5035796;28;20059;-76
2022/03/19 06:43:20;;;;;;;0.68;0.65;;;6.70;99.90;;;;;;5035617;28;20041;-76
2022/03/19 06:45:46;;;;;;;1.25;1.25;;;6.70;99.90;;;;;;5035745;28;20033;-76
2022/03/19 06:48:14;;;;;;;3.28;1.42;;;6.80;99.90;;;;;;5035903;28;20083;-76
2022/03/19 06:50:40;;;;;;;0.98;0.98;;;6.80;99.90;;;;;;5041551;28;20048;-75
2022/03/19 06:53:06;;;;;;;0.98;0.65;;;6.90;99.90;;;;;;5054086;28;20017;-76
2022/03/19 06:55:32;;;;;;;1.00;1.00;;;6.90;99.90;;;;;;5055451;28;20092;-76
2022/03/19 06:58:01;;;;;;;1.27;1.17;;;6.90;99.90;;;;;;5055579;28;20013;-76
2022/03/19 07:00:27;;;;;;;1.95;0.77;;;7.00;99.90;;;;;;5056182;28;20036;-76
2022/03/19 07:02:54;;;;;;;1.48;0.75;;;7.10;99.90;;;;;;5055254;28;20159;-76
2022/03/19 07:05:25;;;;;;;0.90;0.90;;;7.10;99.90;;;;;;5055287;28;20553;-76
2022/03/19 07:07:52;;;;;;;2.15;0.70;;;7.10;99.90;;;;;;5054437;28;20021;-76
2022/03/19 07:10:19;;;;;;;3.72;2.50;;;7.20;99.90;;;;;;5054815;28;20032;-76
2022/03/19 07:12:53;;;;;;;0.65;0.65;;;7.30;99.90;;;;;;5055497;28;20490;-76
2022/03/19 07:15:21;;;;;;;1.15;1.15;;;7.40;99.90;;;;;;5055082;28;20480;-76
2022/03/19 07:17:48;;;;;;;0.98;0.98;;;7.40;99.90;;;;;;5054864;28;20037;-76
2022/03/19 07:20:14;;;;;;;2.47;1.45;;;7.50;99.90;;;;;;5055258;28;20063;-76
2022/03/19 07:22:50;;;;;;;0.75;0.70;;;7.50;99.90;;;;;;5056726;28;20522;-76
2022/03/19 07:25:16;;;;;;;1.98;1.77;;;7.60;99.90;;;;;;5054623;28;20108;-76
2022/03/19 07:27:42;;;;;;;9.20;0.95;;;7.70;99.90;;;;;;5054923;28;20029;-76
2022/03/19 07:30:09;;;;;;;12.63;2.15;;;7.80;99.90;;;;;;5056581;28;20449;-76
2022/03/19 07:32:35;;;;;;;0.93;0.93;;;7.90;99.90;;;;;;5055502;28;20033;-76
2022/03/19 07:35:00;;;;;;;1.58;1.13;;;8.00;99.90;;;;;;5054777;28;20090;-76
2022/03/19 07:37:28;;;;;;;1.85;1.67;;;8.10;99.90;;;;;;5054519;28;20447;-76
2022/03/19 07:39:55;;;;;;;2.75;2.20;;;8.20;99.90;;;;;;5055356;28;20107;-76
2022/03/19 07:42:20;;;;;;;0.77;0.77;;;8.40;99.90;;;;;;5054619;28;20056;-76
2022/03/19 07:44:46;;;;;;;0.52;0.52;;;8.70;99.90;;;;;;5053935;28;20462;-76
2022/03/19 07:47:15;;;;;;;1.40;0.88;;;9.30;99.90;;;;;;5054435;28;20029;-76
2022/03/19 07:49:41;;;;;;;0.60;0.60;;;10.00;99.90;;;;;;5056255;28;20025;-75
2022/03/19 07:52:10;;;;;;;0.88;0.52;;;10.00;99.90;;;;;;5054192;28;20438;-76
2022/03/19 07:54:37;;;;;;;1.65;1.35;;;9.60;99.90;;;;;;5053856;28;20088;-76
2022/03/19 07:57:04;;;;;;;10.23;1.02;;;9.60;99.90;;;;;;5054469;28;20488;-76
2022/03/19 07:59:30;;;;;;;1.27;0.40;;;9.60;99.90;;;;;;5053783;28;20021;-76
2022/03/19 08:01:56;;;;;;;1.85;1.75;;;9.70;99.90;;;;;;5054459;28;20111;-76
2022/03/19 08:04:24;;;;;;;0.45;0.45;;;9.90;99.90;;;;;;5053859;28;20096;-76
2022/03/19 08:06:54;;;;;;;2.80;0.93;;;10.10;99.90;;;;;;5054199;28;20029;-76
2022/03/19 08:09:21;;;;;;;2.17;1.27;;;10.30;99.90;;;;;;5053693;28;20373;-76
2022/03/19 08:11:49;;;;;;;2.40;1.17;;;10.60;99.90;;;;;;5053951;28;20418;-77
2022/03/19 08:14:16;;;;;;;3.10;1.75;;;11.60;99.90;;;;;;5053628;28;20028;-77
2022/03/19 08:16:42;;;;;;;4.20;1.65;;;12.90;99.90;;;;;;5049518;28;20063;-77
2022/03/19 08:19:11;;;;;;;3.22;1.85;;;13.80;99.90;;;;;;5032931;28;20096;-77
2022/03/19 08:21:37;;;;;;;2.05;1.52;;;14.40;99.90;;;;;;5033962;28;20112;-77
2022/03/19 08:24:03;;;;;;;3.53;1.90;;;14.80;99.90;;;;;;5034011;28;20052;-77
2022/03/19 08:26:28;;;;;;;6.10;1.50;;;14.90;99.90;;;;;;5033684;28;20060;-77
2022/03/19 08:28:54;;;;;;;1.73;1.45;;;14.90;99.90;;;;;;5033856;28;20022;-77
2022/03/19 08:31:20;;;;;;;7.65;1.85;;;14.20;99.90;;;;;;5033927;28;20476;-77
2022/03/19 08:33:45;;;;;;;2.85;1.40;;;13.40;99.90;;;;;;5033223;28;20065;-77
2022/03/19 08:36:11;;;;;;;5.68;2.08;;;13.70;99.90;;;;;;5033933;28;20477;-77
2022/03/19 08:41:21;;;;;;;3.35;1.40;;;15.60;99.90;;;;;;5053405;28;20043;-78
2022/03/19 08:43:46;;;;;;;4.88;2.30;;;16.20;99.90;;;;;;5053320;28;20049;-77
2022/03/19 08:46:12;;;;;;;9.75;2.20;;;16.70;99.90;;;;;;5053552;28;20037;-77
2022/03/19 08:48:38;;;;;;;4.25;1.85;;;17.30;99.90;;;;;;5053422;28;20373;-78
2022/03/19 08:53:49;;;;;;;1.60;1.35;;;17.60;99.90;;;;;;5052910;28;20032;-77
2022/03/19 08:56:14;;;;;;;5.25;1.95;;;17.60;99.90;;;;;;5055534;28;20166;-78
2022/03/19 08:58:40;;;;;;;1.77;1.45;;;18.20;99.90;;;;;;5053365;28;20056;-78
2022/03/19 09:01:06;;;;;;;7.35;1.85;;;18.30;99.90;;;;;;5053153;28;20499;-78
2022/03/19 09:03:32;;;;;;;7.63;2.25;;;18.70;99.90;;;;;;5053181;28;20369;-75
2022/03/19 09:05:58;;;;;;;3.75;1.08;;;18.80;99.90;;;;;;5054648;28;20028;-76
2022/03/19 09:08:25;;;;;;;4.97;1.52;;;18.90;99.90;;;;;;5052881;28;20507;-76
2022/03/19 09:10:52;;;;;;;3.78;1.75;;;19.10;99.90;;;;;;5052920;28;20029;-76
2022/03/19 09:13:18;;;;;;;7.57;3.05;;;19.10;99.90;;;;;;5052975;28;20114;-76
2022/03/19 09:15:43;;;;;;;1.33;1.10;;;19.60;99.90;;;;;;5052994;28;20017;-76
2022/03/19 09:18:09;;;;;;;5.43;2.22;;;19.70;99.90;;;;;;5036052;28;20481;-76
2022/03/19 09:20:35;;;;;;;12.70;2.20;;;19.40;99.90;;;;;;5033265;28;20041;-76
2022/03/19 09:23:02;;;;;;;7.88;2.13;;;19.60;99.90;;;;;;5033123;28;20026;-76
2022/03/19 09:25:28;;;;;;;2.50;1.75;;;19.90;99.90;;;;;;5034688;28;20447;-76
2022/03/19 09:27:54;;;;;;;5.53;1.67;;;19.60;99.90;;;;;;5032327;28;20025;-76
2022/03/19 09:30:19;;;;;;;4.18;2.40;;;19.50;99.90;;;;;;5032912;28;20068;-76
2022/03/19 09:32:45;;;;;;;5.90;2.53;;;19.40;99.90;;;;;;5032416;28;20025;-77
2022/03/19 09:35:11;;;;;;;3.40;2.03;;;19.50;99.90;;;;;;5036211;28;20369;-76
2022/03/19 09:37:36;;;;;;;11.88;1.80;;;19.90;99.90;;;;;;5043471;28;20026;-76
2022/03/19 09:40:03;;;;;;;2.65;1.55;;;20.10;99.90;;;;;;5052632;28;20134;-76
2022/03/19 09:42:28;;;;;;;5.00;1.80;;;20.30;99.80;;;;;;5052658;28;20062;-74
2022/03/19 09:44:54;;;;;;;4.22;1.40;;;20.60;99.70;;;;;;5054600;28;20104;-77
2022/03/19 09:47:20;;;;;;;4.10;1.85;;;20.80;99.40;;;;;;5053087;28;20025;-77
2022/03/19 09:49:46;;;;;;;3.15;1.42;;;19.90;99.70;;;;;;5052679;28;20032;-76
2022/03/19 09:52:12;;;;;;;2.38;1.45;;;20.10;99.90;;;;;;5053486;28;20013;-75
2022/03/19 09:54:39;;;;;;;4.38;0.95;;;19.70;99.90;;;;;;5052344;28;20075;-76
2022/03/19 09:57:05;;;;;;;6.00;2.97;;;19.20;99.90;;;;;;5052816;28;20104;-76
2022/03/19 09:59:30;;;;;;;4.47;1.35;;;18.30;99.90;;;;;;5052774;28;20079;-77
2022/03/19 10:01:56;;;;;;;1.50;1.40;;;17.70;99.90;;;;;;5054537;28;20047;-77
2022/03/19 10:04:23;;;;;;;4.35;0.77;;;17.30;99.90;;;;;;5052051;28;20025;-76
2022/03/19 10:09:47;;;;;;;2.65;0.80;;;16.90;99.90;;;;;;5052393;28;20040;-76
2022/03/19 10:12:21;;;;;;;3.65;1.27;;;17.20;99.90;;;;;;5055960;28;20025;-75
2022/03/19 10:14:53;;;;;;;1.00;1.00;;;17.20;99.90;;;;;;5051936;28;20017;-76
2022/03/19 10:17:45;;;;;;;3.28;1.38;;;17.40;99.90;;;;;;5042501;28;20084;-76
2022/03/19 10:20:12;;;;;;;11.50;1.65;;;17.30;99.90;;;;;;5031433;28;20045;-77
2022/03/19 10:22:42;;;;;;;3.22;1.13;;;17.10;99.90;;;;;;5033922;28;20033;-76
2022/03/19 10:25:10;;;;;;;3.63;0.88;;;16.90;99.90;;;;;;5032163;28;20063;-76
2022/03/19 10:27:37;;;;;;;2.08;1.08;;;16.90;99.90;;;;;;5035260;28;20048;-76
2022/03/19 10:30:19;;;;;;;2.42;0.90;;;16.70;99.90;;;;;;5036200;28;20040;-76
2022/03/19 10:32:51;;;;;;;2.00;0.93;;;16.90;99.90;;;;;;5037843;28;20033;-76
2022/03/19 10:35:26;;;;;;;4.32;1.83;;;17.00;99.90;;;;;;5035137;28;20033;-77
2022/03/19 10:37:55;;;;;;;1.85;0.95;;;17.10;99.90;;;;;;5047745;28;20416;-77
2022/03/19 10:40:21;;;;;;;1.35;1.13;;;16.80;99.90;;;;;;5055683;28;20032;-76
2022/03/19 10:42:47;;;;;;;0.65;0.65;;;16.70;99.90;;;;;;5057327;28;20179;-78
2022/03/19 10:45:21;;;;;;;1.77;0.77;;;16.70;99.90;;;;;;5055605;28;20029;-79
2022/03/19 10:47:48;;;;;;;0.82;0.80;;;16.70;99.90;;;;;;5055731;28;20028;-79
2022/03/19 10:50:24;;;;;;;1.63;1.13;;;16.60;99.90;;;;;;5055617;28;20024;-78
2022/03/19 10:52:51;;;;;;;1.02;0.93;;;16.60;99.90;;;;;;5055920;28;20024;-78
2022/03/19 10:55:19;;;;;;;5.28;1.05;;;16.80;99.90;;;;;;5055460;28;20028;-79
2022/03/19 10:57:45;;;;;;;1.30;1.13;;;17.10;99.90;;;;;;5055983;28;20028;-77
2022/03/19 11:00:12;;;;;;;2.42;0.63;;;17.40;99.90;;;;;;5057460;28;20056;-76
2022/03/19 11:02:45;;;;;;;3.63;1.95;;;17.50;99.90;;;;;;5055379;28;20032;-78
2022/03/19 11:05:12;;;;;;;5.63;0.77;;;17.60;99.90;;;;;;5055661;28;20024;-78
2022/03/19 11:07:43;;;;;;;3.38;1.20;;;17.60;99.90;;;;;;5055516;28;20025;-80
2022/03/19 11:10:09;;;;;;;4.75;0.57;;;17.30;99.90;;;;;;5054796;28;20083;-76
2022/03/19 11:12:38;;;;;;;2.55;1.70;;;17.70;99.90;;;;;;5054601;28;20439;-78
2022/03/19 11:15:05;;;;;;;4.63;0.70;;;17.70;99.90;;;;;;5054874;28;20021;-76
2022/03/19 11:17:32;;;;;;;2.95;1.63;;;17.70;99.90;;;;;;5043541;28;20030;-75
2022/03/19 11:20:00;;;;;;;0.60;0.45;;;17.70;99.90;;;;;;5035228;28;20092;-76
2022/03/19 11:22:29;;;;;;;2.28;1.25;;;18.00;99.90;;;;;;5035153;28;20053;-79
2022/03/19 11:25:13;;;;;;;1.15;0.88;;;18.10;99.90;;;;;;5034923;28;20105;-79
2022/03/19 11:27:42;;;;;;;0.57;0.55;;;17.80;99.90;;;;;;5035901;28;20033;-77
2022/03/19 11:30:21;;;;;;;1.73;1.35;;;17.80;99.90;;;;;;5033003;28;20087;-78
2022/03/19 11:33:06;;;;;;;1.88;1.30;;;17.80;99.90;;;;;;5034854;28;20072;-77
2022/03/19 11:35:34;;;;;;;2.70;1.60;;;17.80;99.90;;;;;;5034464;28;20025;-75
2022/03/19 11:38:11;;;;;;;1.52;1.42;;;17.60;99.90;;;;;;5047888;28;20100;-76
2022/03/19 11:40:38;;;;;;;2.85;1.58;;;17.70;99.90;;;;;;5054453;28;20017;-78
2022/03/19 11:43:05;;;;;;;2.28;1.17;;;17.80;99.90;;;;;;5054427;28;20504;-76
2022/03/19 11:45:41;;;;;;;0.73;0.73;;;17.90;99.90;;;;;;5056223;28;20512;-79
2022/03/19 11:48:36;;;;;;;1.52;0.68;;;17.90;99.90;;;;;;5054023;28;20029;-79
2022/03/19 11:51:28;;;;;;;3.50;1.27;;;18.10;99.90;;;;;;5054265;28;20104;-78
2022/03/19 11:54:02;;;;;;;1.63;1.23;;;18.50;99.90;;;;;;5054436;28;20046;-77
2022/03/19 11:56:41;;;;;;;0.80;0.43;;;18.50;99.90;;;;;;5057790;28;20052;-77
2022/03/19 11:59:15;;;;;;;0.75;0.50;;;18.50;99.90;;;;;;5054338;28;20028;-78
2022/03/19 12:01:47;;;;;;;1.27;1.02;;;18.70;99.90;;;;;;5054590;28;20041;-77
2022/03/19 12:04:14;;;;;;;5.88;0.82;;;19.10;99.90;;;;;;5054430;28;20392;-77
2022/03/19 12:06:56;;;;;;;3.30;1.40;;;19.00;99.90;;;;;;5055605;28;20032;-79
2022/03/19 12:09:52;;;;;;;1.30;1.07;;;19.10;99.80;;;;;;5052745;28;20028;-76
2022/03/19 12:12:18;;;;;;;1.02;0.98;;;19.00;98.50;;;;;;5053729;28;20260;-77
2022/03/19 12:14:44;;;;;;;0.73;0.70;;;19.10;98.20;;;;;;5054945;28;20028;-77
2022/03/19 12:17:23;;;;;;;0.60;0.60;;;19.00;98.40;;;;;;5045320;28;20092;-78
2022/03/19 12:19:58;;;;;;;2.38;0.98;;;19.30;98.20;;;;;;5034637;28;20446;-80
2022/03/19 12:22:38;;;;;;;2.78;1.25;;;19.30;97.30;;;;;;5034039;28;20065;-76
2022/03/19 12:25:14;;;;;;;2.38;1.50;;;19.00;97.20;;;;;;5034459;28;20024;-78
2022/03/19 12:27:58;;;;;;;1.92;1.15;;;19.20;97.60;;;;;;5033777;28;20029;-77
2022/03/19 12:30:25;;;;;;;1.83;0.65;;;19.40;98.00;;;;;;5033765;28;20045;-78
2022/03/19 12:32:54;;;;;;;1.25;0.63;;;19.90;98.20;;;;;;5033997;28;20028;-77
2022/03/19 12:35:25;;;;;;;0.82;0.50;;;20.00;96.90;;;;;;5034473;28;20026;-77
2022/03/19 12:37:56;;;;;;;8.07;1.10;;;19.70;96.40;;;;;;5045530;28;20388;-77
2022/03/19 12:41:23;;;;;;;0.63;0.63;;;19.70;96.60;;;;;;5053468;28;20017;-77
2022/03/19 12:43:15;;;;;;;;;;;19.80;96.60;;;;;;5055537;28;20060;-77
2022/03/19 12:45:47;;;;;;;0.68;0.32;;;19.80;95.90;;;;;;5053613;28;19915;-78
2022/03/19 12:48:14;;;;;;;4.75;1.85;;;19.80;97.20;;;;;;5053361;28;20034;-78
2022/03/19 12:50:51;;;;;;;0.88;0.50;;;19.90;97.10;;;;;;5052400;28;20120;-78
2022/03/19 12:53:27;;;;;;;0.60;0.55;;;19.50;97.00;;;;;;5054646;28;20021;-78
2022/03/19 12:56:09;;;;;;;2.40;1.02;;;19.60;97.60;;;;;;5053190;28;20056;-78
2022/03/19 12:58:40;;;;;;;5.57;1.17;;;19.40;96.60;;;;;;5052715;28;20064;-78
2022/03/19 13:01:07;;;;;;;1.48;0.85;;;19.50;96.20;;;;;;5053316;28;20448;-79
2022/03/19 13:03:33;;;;;;;3.22;1.10;;;19.80;96.60;;;;;;5054921;28;20021;-79
2022/03/19 13:05:58;;;;;;;2.03;1.00;;;19.50;96.30;;;;;;5053284;28;20077;-77
2022/03/19 13:08:24;;;;;;;0.75;0.75;;;19.50;97.10;;;;;;5052771;28;20468;-77
2022/03/19 13:10:52;;;;;;;2.22;0.77;;;19.60;97.50;;;;;;5052716;28;20021;-77
2022/03/19 13:13:18;;;;;;;1.13;0.73;;;19.70;96.30;;;;;;5052300;28;20025;-77
2022/03/19 13:15:52;;;;;;;1.90;0.90;;;19.80;96.30;;;;;;5056297;28;20072;-78